createdAt,value
2022-11-24T00:02:17.806Z,94.00
2022-11-24T00:04:44.506Z,94.10
2022-11-24T00:07:11.082Z,94.10
2022-11-24T00:09:37.685Z,94.10
2022-11-24T00:12:04.442Z,94.10
2022-11-24T00:14:31.110Z,94.10
2022-11-24T00:16:57.905Z,94.10
2022-11-24T00:19:24.616Z,94.20
2022-11-24T00:21:51.222Z,94.10
2022-11-24T00:24:17.831Z,94.20
2022-11-24T00:26:44.422Z,94.50
2022-11-24T00:29:11.431Z,94.70
2022-11-24T00:31:39.600Z,94.80
2022-11-24T00:34:07.553Z,94.80
2022-11-24T00:36:35.051Z,94.90
2022-11-24T00:39:03.021Z,95.30
2022-11-24T00:41:30.242Z,95.40
2022-11-24T00:43:57.150Z,95.20
2022-11-24T00:46:24.201Z,95.40
2022-11-24T00:48:51.086Z,95.40
2022-11-24T00:51:21.674Z,95.50
2022-11-24T00:53:48.228Z,95.40
2022-11-24T00:56:14.875Z,95.40
2022-11-24T00:58:41.765Z,95.40
2022-11-24T01:01:10.500Z,95.40
2022-11-24T01:03:37.152Z,95.40
2022-11-24T01:06:05.153Z,95.50
2022-11-24T01:08:31.759Z,95.40
2022-11-24T01:11:08.263Z,95.40
2022-11-24T01:13:34.858Z,95.40
2022-11-24T01:16:01.485Z,95.40
2022-11-24T01:18:28.087Z,95.50
2022-11-24T01:20:54.609Z,95.50
2022-11-24T01:23:21.189Z,95.60
2022-11-24T01:25:47.773Z,95.50
2022-11-24T01:28:14.642Z,95.40
2022-11-24T01:30:41.368Z,95.30
2022-11-24T01:33:07.996Z,95.40
2022-11-24T01:35:34.539Z,95.20
2022-11-24T01:38:01.092Z,95.10
2022-11-24T01:40:27.658Z,95.10
2022-11-24T01:42:54.339Z,95.10
2022-11-24T01:45:29.727Z,95.10
2022-11-24T01:47:56.709Z,95.00
2022-11-24T01:50:23.887Z,95.10
2022-11-24T01:52:52.637Z,95.10
2022-11-24T01:55:34.128Z,95.00
2022-11-24T01:58:04.991Z,94.90
2022-11-24T02:00:32.587Z,94.90
2022-11-24T02:02:59.619Z,94.90
2022-11-24T02:05:28.284Z,95.00
2022-11-24T02:07:56.666Z,95.10
2022-11-24T02:10:23.722Z,95.20
2022-11-24T02:12:51.916Z,95.50
2022-11-24T02:15:18.966Z,95.60
2022-11-24T02:17:45.575Z,95.70
2022-11-24T02:20:13.260Z,95.70
2022-11-24T02:22:51.936Z,95.80
2022-11-24T02:25:42.860Z,95.80
2022-11-24T02:28:12.395Z,95.90
2022-11-24T02:30:39.284Z,96.10
2022-11-24T02:33:06.001Z,96.10
2022-11-24T02:35:32.599Z,96.00
2022-11-24T02:37:59.243Z,96.10
2022-11-24T02:40:27.849Z,96.10
2022-11-24T02:42:56.361Z,95.90
2022-11-24T02:45:23.317Z,95.90
2022-11-24T02:47:50.045Z,95.60
2022-11-24T02:50:16.623Z,95.60
2022-11-24T02:52:43.184Z,95.40
2022-11-24T02:55:09.933Z,95.40
2022-11-24T02:57:36.638Z,95.30
2022-11-24T03:00:03.853Z,95.20
2022-11-24T03:02:30.534Z,95.10
2022-11-24T03:04:57.161Z,94.90
2022-11-24T03:07:23.763Z,94.50
2022-11-24T03:09:50.401Z,94.60
2022-11-24T03:12:17.029Z,94.60
2022-11-24T03:14:43.586Z,94.50
2022-11-24T03:17:10.153Z,94.50
2022-11-24T03:19:36.674Z,94.50
2022-11-24T03:22:03.426Z,94.80
2022-11-24T03:24:30.050Z,94.80
2022-11-24T03:26:56.579Z,94.70
2022-11-24T03:29:23.155Z,94.90
2022-11-24T03:31:49.700Z,94.80
2022-11-24T03:34:16.290Z,94.90
2022-11-24T03:36:42.863Z,94.90
2022-11-24T03:39:09.538Z,94.80
2022-11-24T03:41:36.132Z,94.80
2022-11-24T03:44:02.742Z,94.60
2022-11-24T03:46:29.351Z,94.60
2022-11-24T03:48:55.884Z,94.60
2022-11-24T03:51:22.471Z,94.60
2022-11-24T03:53:49.021Z,94.60
2022-11-24T03:56:15.647Z,94.60
2022-11-24T03:58:42.164Z,94.60
2022-11-24T04:01:09.063Z,94.60
2022-11-24T04:03:35.635Z,94.60
2022-11-24T04:06:02.175Z,94.50
2022-11-24T04:08:28.759Z,94.60
2022-11-24T04:10:55.324Z,94.30
2022-11-24T04:13:24.164Z,94.20
2022-11-24T04:15:51.283Z,94.30
2022-11-24T04:18:18.239Z,94.40
2022-11-24T04:20:45.097Z,94.30
2022-11-24T04:23:11.910Z,94.40
2022-11-24T04:25:38.889Z,94.40
2022-11-24T04:28:05.458Z,94.40
2022-11-24T04:30:32.280Z,94.40
2022-11-24T04:32:59.016Z,94.60
2022-11-24T04:35:27.330Z,94.70
2022-11-24T04:37:53.917Z,94.60
2022-11-24T04:40:20.648Z,94.40
2022-11-24T04:42:54.868Z,94.40
2022-11-24T04:45:21.741Z,94.20
2022-11-24T04:47:48.309Z,94.10
2022-11-24T04:50:14.896Z,94.10
2022-11-24T04:52:41.429Z,94.10
2022-11-24T04:55:08.283Z,94.10
2022-11-24T04:57:34.776Z,94.00
2022-11-24T05:00:01.567Z,93.90
2022-11-24T05:02:28.110Z,94.00
2022-11-24T05:04:54.692Z,94.00
2022-11-24T05:07:21.353Z,93.80
2022-11-24T05:10:06.622Z,93.80
2022-11-24T05:12:33.532Z,93.60
2022-11-24T05:15:00.974Z,93.30
2022-11-24T05:17:31.384Z,93.10
2022-11-24T05:19:57.953Z,93.20
2022-11-24T05:22:24.789Z,93.00
2022-11-24T05:24:51.340Z,93.00
2022-11-24T05:27:17.972Z,93.30
2022-11-24T05:29:44.518Z,93.40
2022-11-24T05:32:11.093Z,93.40
2022-11-24T05:34:37.666Z,93.30
2022-11-24T05:37:04.412Z,93.10
2022-11-24T05:39:31.585Z,93.10
2022-11-24T05:41:58.193Z,93.10
2022-11-24T05:44:24.735Z,92.90
2022-11-24T05:46:51.350Z,92.90
2022-11-24T05:49:17.867Z,92.90
2022-11-24T05:51:44.375Z,92.20
2022-11-24T05:54:10.903Z,92.20
2022-11-24T05:56:37.417Z,92.10
2022-11-24T05:59:09.430Z,92.20
2022-11-24T06:01:36.466Z,92.20
2022-11-24T06:04:03.080Z,92.20
2022-11-24T06:06:29.676Z,92.20
2022-11-24T06:08:56.239Z,92.20
2022-11-24T06:11:22.822Z,92.20
2022-11-24T06:13:49.619Z,92.10
2022-11-24T06:16:16.420Z,92.20
2022-11-24T06:18:42.981Z,92.20
2022-11-24T06:21:11.135Z,92.10
2022-11-24T06:23:38.735Z,91.80
2022-11-24T06:26:05.571Z,91.50
2022-11-24T06:28:32.305Z,91.70
2022-11-24T06:31:02.707Z,91.70
2022-11-24T06:33:36.767Z,91.50
2022-11-24T06:36:05.118Z,91.50
2022-11-24T06:38:32.056Z,91.80
2022-11-24T06:40:59.460Z,91.50
2022-11-24T06:43:26.843Z,91.60
2022-11-24T06:45:53.405Z,91.50
2022-11-24T06:48:19.964Z,91.40
2022-11-24T06:50:46.520Z,90.90
2022-11-24T06:53:13.114Z,91.00
2022-11-24T06:55:40.035Z,90.90
2022-11-24T06:58:06.643Z,91.30
2022-11-24T07:00:33.269Z,91.40
2022-11-24T07:03:00.722Z,91.50
2022-11-24T07:05:27.511Z,91.80
2022-11-24T07:07:54.667Z,91.70
2022-11-24T07:10:21.237Z,91.60
2022-11-24T07:12:47.768Z,91.90
2022-11-24T07:15:14.320Z,91.90
2022-11-24T07:17:40.917Z,91.60
2022-11-24T07:20:08.133Z,91.10
2022-11-24T07:22:34.954Z,91.40
2022-11-24T07:25:01.761Z,91.10
2022-11-24T07:27:28.434Z,91.10
2022-11-24T07:29:54.953Z,90.50
2022-11-24T07:32:21.541Z,89.50
2022-11-24T07:34:48.135Z,89.40
2022-11-24T07:37:14.798Z,88.70
2022-11-24T07:39:41.390Z,87.60
2022-11-24T07:42:08.550Z,88.60
2022-11-24T07:44:35.240Z,87.20
2022-11-24T07:47:01.912Z,85.00
2022-11-24T07:49:28.442Z,83.40
2022-11-24T07:51:54.975Z,81.50
2022-11-24T07:54:21.616Z,78.00
2022-11-24T07:56:48.553Z,77.20
2022-11-24T07:59:15.205Z,77.50
2022-11-24T08:01:41.882Z,74.30
2022-11-24T08:04:08.503Z,70.20
2022-11-24T08:06:41.910Z,66.70
2022-11-24T08:09:11.076Z,61.80
2022-11-24T08:11:37.691Z,56.70
2022-11-24T08:14:04.222Z,48.20
2022-11-24T08:16:31.982Z,47.40
2022-11-24T08:18:58.564Z,50.10
2022-11-24T08:21:25.498Z,48.70
2022-11-24T08:23:57.673Z,50.20
2022-11-24T08:26:24.922Z,50.10
2022-11-24T08:28:58.712Z,50.10
2022-11-24T08:31:27.381Z,50.00
2022-11-24T08:33:55.301Z,50.10
2022-11-24T08:36:22.229Z,48.50
2022-11-24T08:38:53.611Z,48.10
2022-11-24T08:41:20.323Z,44.20
2022-11-24T08:43:46.895Z,44.60
2022-11-24T08:46:17.099Z,43.70
2022-11-24T08:48:53.169Z,44.90
2022-11-24T08:51:20.896Z,44.10
2022-11-24T08:53:47.427Z,41.60
2022-11-24T08:56:14.423Z,39.60
2022-11-24T08:58:41.441Z,39.70
2022-11-24T09:01:09.408Z,39.70
2022-11-24T09:03:36.090Z,41.50
2022-11-24T09:06:03.608Z,38.00
2022-11-24T09:08:31.035Z,38.00
2022-11-24T09:11:01.490Z,39.80
2022-11-24T09:13:28.122Z,36.60
2022-11-24T09:15:55.044Z,38.30
2022-11-24T09:18:22.771Z,37.40
2022-11-24T09:20:51.833Z,38.40
2022-11-24T09:23:18.423Z,39.60
2022-11-24T09:25:44.940Z,39.40
2022-11-24T09:28:11.532Z,39.40
2022-11-24T09:30:38.082Z,41.30
2022-11-24T09:33:04.894Z,42.40
2022-11-24T09:35:31.828Z,43.30
2022-11-24T09:37:58.452Z,45.80
2022-11-24T09:40:24.953Z,49.90
2022-11-24T09:43:07.495Z,49.80
2022-11-24T09:46:05.519Z,52.90
2022-11-24T09:48:35.291Z,54.50
2022-11-24T09:51:03.221Z,57.60
2022-11-24T09:53:32.653Z,59.10
2022-11-24T09:56:02.309Z,61.20
2022-11-24T09:58:48.347Z,60.80
2022-11-24T10:01:22.847Z,63.20
2022-11-24T10:03:53.175Z,64.30
2022-11-24T10:06:22.787Z,66.20
2022-11-24T10:09:12.750Z,67.30
2022-11-24T10:11:42.064Z,67.50
2022-11-24T10:14:36.792Z,65.10
2022-11-24T10:17:10.771Z,66.60
2022-11-24T10:19:37.648Z,67.50
2022-11-24T10:22:19.614Z,67.20
2022-11-24T10:24:56.937Z,69.00
2022-11-24T10:27:29.644Z,68.20
2022-11-24T10:29:57.023Z,68.00
2022-11-24T10:32:25.701Z,69.50
2022-11-24T10:34:53.129Z,69.50
2022-11-24T10:37:26.507Z,69.40
2022-11-24T10:39:59.899Z,69.50
2022-11-24T10:42:28.663Z,71.80
2022-11-24T10:45:15.018Z,71.20
2022-11-24T10:47:42.917Z,73.20
2022-11-24T10:50:09.655Z,73.40
2022-11-24T10:52:41.172Z,73.80
2022-11-24T10:55:08.013Z,75.20
2022-11-24T10:57:36.096Z,75.20
2022-11-24T11:00:05.257Z,77.80
2022-11-24T11:02:39.146Z,77.80
2022-11-24T11:05:24.765Z,77.50
2022-11-24T11:08:09.543Z,77.80
2022-11-24T11:10:36.153Z,77.90
2022-11-24T11:13:20.646Z,78.00
2022-11-24T11:15:47.332Z,77.90
2022-11-24T11:18:18.010Z,78.00
2022-11-24T11:20:54.657Z,78.10
2022-11-24T11:23:23.355Z,76.70
2022-11-24T11:25:49.974Z,77.30
2022-11-24T11:28:22.907Z,73.90
2022-11-24T11:34:08.331Z,72.40
2022-11-24T11:36:50.772Z,66.90
2022-11-24T11:39:23.264Z,62.90
2022-11-24T11:41:51.542Z,61.00
2022-11-24T11:44:21.246Z,57.00
2022-11-24T11:46:47.973Z,55.40
2022-11-24T11:49:14.560Z,51.80
2022-11-24T11:52:00.135Z,49.60
2022-11-24T11:54:43.822Z,47.20
2022-11-24T11:57:11.469Z,47.30
2022-11-24T11:59:59.052Z,41.30
2022-11-24T12:02:25.715Z,33.20
2022-11-24T12:05:12.935Z,28.40
2022-11-24T12:08:01.318Z,26.30
2022-11-24T12:10:43.364Z,23.50
2022-11-24T12:13:22.238Z,24.80
2022-11-24T12:15:52.603Z,25.70
2022-11-24T12:18:55.789Z,27.80
2022-11-24T12:21:24.581Z,26.20
2022-11-24T12:24:11.436Z,24.60
2022-11-24T12:26:38.210Z,24.40
2022-11-24T12:29:25.660Z,24.80
2022-11-24T12:32:01.162Z,25.60
2022-11-24T12:34:27.695Z,28.80
2022-11-24T12:37:07.644Z,27.40
2022-11-24T12:39:36.238Z,25.70
2022-11-24T12:42:09.489Z,27.00
2022-11-24T12:44:52.501Z,28.70
2022-11-24T12:47:27.471Z,30.00
2022-11-24T12:50:26.311Z,25.50
2022-11-24T12:53:08.040Z,24.40
2022-11-24T12:55:35.207Z,17.20
2022-11-24T12:58:09.465Z,14.40
2022-11-24T13:00:46.389Z,12.60
2022-11-24T13:03:21.084Z,12.60
2022-11-24T13:06:02.956Z,13.80
2022-11-24T13:08:29.682Z,14.50
2022-11-24T13:11:16.183Z,15.20
2022-11-24T13:14:04.719Z,16.20
2022-11-24T13:16:53.232Z,14.30
2022-11-24T13:19:20.481Z,13.10
2022-11-24T13:21:51.889Z,14.60
2022-11-24T13:24:22.234Z,15.70
2022-11-24T13:26:50.356Z,13.00
2022-11-24T13:29:35.564Z,15.10
2022-11-24T13:32:02.110Z,15.40
2022-11-24T13:34:43.729Z,16.20
2022-11-24T13:37:26.330Z,16.60
2022-11-24T13:39:59.825Z,16.50
2022-11-24T13:42:41.000Z,17.70
2022-11-24T13:45:29.719Z,19.10
2022-11-24T13:47:56.271Z,19.70
2022-11-24T13:50:49.215Z,19.00
2022-11-24T13:53:25.016Z,20.20
2022-11-24T13:55:57.370Z,20.60
2022-11-24T13:58:31.706Z,20.60
2022-11-24T14:00:58.652Z,20.70
2022-11-24T14:04:27.958Z,19.90
2022-11-24T14:06:40.072Z,20.60
2022-11-24T14:09:32.681Z,21.60
2022-11-24T14:12:13.102Z,22.10
2022-11-24T14:14:40.273Z,20.40
2022-11-24T14:17:07.721Z,22.40
2022-11-24T14:19:34.344Z,22.20
2022-11-24T14:22:00.901Z,22.50
2022-11-24T14:24:33.467Z,23.10
2022-11-24T14:27:02.154Z,22.90
2022-11-24T14:29:32.972Z,24.30
2022-11-24T14:32:04.754Z,25.30
2022-11-24T14:34:33.422Z,26.10
2022-11-24T14:37:00.568Z,26.70
2022-11-24T14:39:27.660Z,26.90
2022-11-24T14:42:03.529Z,27.60
2022-11-24T14:44:42.794Z,28.60
2022-11-24T14:47:32.865Z,28.80
2022-11-24T14:50:20.593Z,28.70
2022-11-24T14:52:54.387Z,30.60
2022-11-24T14:55:31.270Z,31.20
2022-11-24T14:57:58.530Z,31.70
2022-11-24T15:00:25.084Z,33.10
2022-11-24T15:02:55.966Z,32.40
2022-11-24T15:05:24.490Z,34.40
2022-11-24T15:07:52.731Z,34.80
2022-11-24T15:10:33.907Z,36.50
2022-11-24T15:13:02.432Z,37.40
2022-11-24T15:15:38.642Z,38.10
2022-11-24T15:18:05.693Z,38.80
2022-11-24T15:20:35.156Z,37.70
2022-11-24T15:23:21.476Z,38.10
2022-11-24T15:25:48.176Z,39.80
2022-11-24T15:28:14.898Z,40.40
2022-11-24T15:30:41.762Z,42.40
2022-11-24T15:33:12.793Z,43.80
2022-11-24T15:35:39.307Z,44.90
2022-11-24T15:38:05.841Z,46.20
2022-11-24T15:40:32.617Z,46.30
2022-11-24T15:43:04.880Z,47.50
2022-11-24T15:45:34.067Z,49.20
2022-11-24T15:48:00.600Z,50.00
2022-11-24T15:50:27.162Z,50.10
2022-11-24T15:52:53.775Z,51.70
2022-11-24T15:55:21.208Z,52.90
2022-11-24T15:57:48.753Z,53.30
2022-11-24T16:00:17.027Z,53.90
2022-11-24T16:02:43.810Z,55.10
2022-11-24T16:05:11.064Z,55.40
2022-11-24T16:07:37.781Z,55.60
2022-11-24T16:10:04.961Z,56.50
2022-11-24T16:12:31.640Z,56.30
2022-11-24T16:14:58.203Z,56.20
2022-11-24T16:17:24.847Z,56.00
2022-11-24T16:20:00.198Z,56.20
2022-11-24T16:22:27.190Z,59.70
2022-11-24T16:24:53.839Z,59.80
2022-11-24T16:27:20.412Z,62.10
2022-11-24T16:29:46.969Z,64.30
2022-11-24T16:32:13.594Z,65.30
2022-11-24T16:34:40.092Z,67.00
2022-11-24T16:37:06.603Z,66.90
2022-11-24T16:39:33.124Z,68.40
2022-11-24T16:41:59.711Z,68.40
2022-11-24T16:44:26.282Z,68.30
2022-11-24T16:46:53.469Z,68.30
2022-11-24T16:49:20.081Z,68.30
2022-11-24T16:51:46.584Z,68.20
2022-11-24T16:54:13.126Z,68.80
2022-11-24T16:56:39.631Z,70.70
2022-11-24T16:59:06.210Z,71.40
2022-11-24T17:01:33.493Z,71.10
2022-11-24T17:04:00.420Z,71.40
2022-11-24T17:06:27.275Z,73.10
2022-11-24T17:08:55.123Z,75.10
2022-11-24T17:11:22.622Z,76.40
2022-11-24T17:13:49.543Z,76.30
2022-11-24T17:16:20.545Z,76.40
2022-11-24T17:18:47.326Z,77.70
2022-11-24T17:21:18.433Z,78.30
2022-11-24T17:23:45.432Z,78.00
2022-11-24T17:26:13.899Z,78.80
2022-11-24T17:28:40.698Z,79.20
2022-11-24T17:31:16.182Z,79.30
2022-11-24T17:33:42.822Z,79.50
2022-11-24T17:36:09.422Z,80.30
2022-11-24T17:38:36.021Z,80.90
2022-11-24T17:41:02.728Z,80.50
2022-11-24T17:43:29.385Z,80.50
2022-11-24T17:45:57.074Z,80.50
2022-11-24T17:48:24.125Z,80.50
2022-11-24T17:50:59.951Z,81.10
2022-11-24T17:53:26.631Z,80.20
2022-11-24T17:55:53.446Z,80.20
2022-11-24T17:58:20.121Z,78.30
2022-11-24T18:00:48.687Z,77.60
2022-11-24T18:03:15.324Z,78.20
2022-11-24T18:05:41.907Z,78.60
2022-11-24T18:08:08.443Z,78.10
2022-11-24T18:10:35.612Z,78.20
2022-11-24T18:13:02.273Z,78.70
2022-11-24T18:15:28.857Z,78.30
2022-11-24T18:17:55.458Z,77.30
2022-11-24T18:20:22.071Z,78.00
2022-11-24T18:23:05.836Z,79.10
2022-11-24T18:25:33.279Z,78.80
2022-11-24T18:27:59.787Z,77.60
2022-11-24T18:30:26.461Z,75.60
2022-11-24T18:32:52.965Z,75.60
2022-11-24T18:35:19.548Z,75.70
2022-11-24T18:37:46.126Z,76.40
2022-11-24T18:40:12.709Z,77.60
2022-11-24T18:42:39.260Z,77.90
2022-11-24T18:45:06.188Z,78.50
2022-11-24T18:47:33.512Z,79.20
2022-11-24T18:50:00.242Z,79.50
2022-11-24T18:52:26.841Z,80.50
2022-11-24T18:54:53.348Z,81.80
2022-11-24T18:57:19.861Z,82.30
2022-11-24T18:59:46.398Z,82.50
2022-11-24T19:02:12.995Z,83.50
2022-11-24T19:04:39.608Z,83.50
2022-11-24T19:07:06.170Z,83.50
2022-11-24T19:09:32.723Z,85.50
2022-11-24T19:12:00.044Z,86.90
2022-11-24T19:14:26.668Z,88.60
2022-11-24T19:16:53.317Z,90.10
2022-11-24T19:19:19.896Z,90.50
2022-11-24T19:21:46.558Z,90.60
2022-11-24T19:24:13.292Z,90.60
2022-11-24T19:26:40.015Z,90.60
2022-11-24T19:29:07.292Z,90.60
2022-11-24T19:31:34.569Z,90.70
2022-11-24T19:34:02.852Z,91.20
2022-11-24T19:36:29.713Z,91.20
2022-11-24T19:38:57.458Z,91.50
2022-11-24T19:41:25.485Z,91.50
2022-11-24T19:43:54.907Z,91.00
2022-11-24T19:46:22.835Z,90.70
2022-11-24T19:48:50.223Z,90.70
2022-11-24T19:51:17.935Z,90.60
2022-11-24T19:53:44.834Z,90.60
2022-11-24T19:56:12.697Z,89.20
2022-11-24T19:58:39.932Z,87.50
2022-11-24T20:01:07.792Z,86.70
2022-11-24T20:03:34.697Z,86.30
2022-11-24T20:06:01.268Z,86.40
2022-11-24T20:08:28.710Z,87.20
2022-11-24T20:10:55.238Z,89.10
2022-11-24T20:13:21.844Z,90.70
2022-11-24T20:15:48.362Z,90.60
2022-11-24T20:18:14.953Z,91.00
2022-11-24T20:20:41.519Z,91.00
2022-11-24T20:23:08.174Z,91.40
2022-11-24T20:25:38.012Z,91.10
2022-11-24T20:28:04.580Z,91.20
2022-11-24T20:30:31.096Z,91.20
2022-11-24T20:32:57.691Z,90.80
2022-11-24T20:35:24.220Z,91.00
2022-11-24T20:37:50.775Z,91.20
2022-11-24T20:40:17.304Z,91.10
2022-11-24T20:42:43.825Z,90.70
2022-11-24T20:45:10.341Z,90.70
2022-11-24T20:47:36.908Z,91.00
2022-11-24T20:50:03.543Z,90.90
2022-11-24T20:52:30.189Z,90.60
2022-11-24T20:54:58.189Z,90.60
2022-11-24T20:57:24.726Z,90.60
2022-11-24T20:59:52.268Z,90.60
2022-11-24T21:02:19.933Z,89.60
2022-11-24T21:04:46.740Z,88.00
2022-11-24T21:07:14.649Z,88.60
2022-11-24T21:09:41.301Z,90.00
2022-11-24T21:12:07.882Z,90.10
2022-11-24T21:14:35.452Z,89.80
2022-11-24T21:17:02.195Z,87.80
2022-11-24T21:19:28.734Z,88.20
2022-11-24T21:21:55.347Z,87.60
2022-11-24T21:24:22.117Z,87.30
2022-11-24T21:26:49.063Z,86.30
2022-11-24T21:29:17.745Z,85.60
2022-11-24T21:31:44.349Z,84.10
2022-11-24T21:34:13.806Z,83.20
2022-11-24T21:36:44.538Z,83.00
2022-11-24T21:39:13.384Z,82.90
2022-11-24T21:41:40.257Z,82.90
2022-11-24T21:44:06.875Z,82.90
2022-11-24T21:46:40.449Z,82.80
2022-11-24T21:49:08.977Z,85.60
2022-11-24T21:51:35.518Z,90.10
2022-11-24T21:54:02.187Z,90.40
2022-11-24T21:56:28.722Z,90.40
2022-11-24T21:58:56.653Z,89.90
2022-11-24T22:01:24.704Z,90.20
2022-11-24T22:03:51.456Z,90.20
2022-11-24T22:06:19.197Z,90.20
2022-11-24T22:08:46.560Z,90.20
2022-11-24T22:11:13.135Z,90.20
2022-11-24T22:13:40.050Z,90.20
2022-11-24T22:16:07.980Z,90.20
2022-11-24T22:18:36.668Z,90.20
2022-11-24T22:21:03.974Z,90.20
2022-11-24T22:23:34.013Z,90.10
2022-11-24T22:26:02.832Z,90.10
2022-11-24T22:28:36.039Z,90.20
2022-11-24T22:31:03.767Z,90.10
2022-11-24T22:33:30.398Z,90.70
2022-11-24T22:35:57.559Z,90.90
2022-11-24T22:38:24.400Z,90.60
2022-11-24T22:40:51.065Z,91.30
2022-11-24T22:43:22.736Z,91.70
2022-11-24T22:45:49.624Z,91.80
2022-11-24T22:48:16.383Z,91.90
2022-11-24T22:50:42.951Z,91.10
2022-11-24T22:53:09.509Z,91.10
2022-11-24T22:55:36.146Z,90.50
2022-11-24T22:58:02.664Z,90.80
2022-11-24T23:00:29.219Z,90.80
2022-11-24T23:02:55.801Z,90.70
2022-11-24T23:05:22.513Z,90.30
2022-11-24T23:07:49.149Z,90.00
2022-11-24T23:10:15.713Z,88.90
2022-11-24T23:12:42.256Z,86.10
2022-11-24T23:15:09.008Z,85.40
2022-11-24T23:17:35.532Z,85.30
2022-11-24T23:20:02.110Z,85.60
2022-11-24T23:22:28.671Z,86.00
2022-11-24T23:24:55.196Z,86.00
2022-11-24T23:27:21.880Z,85.90
2022-11-24T23:29:48.595Z,85.30
2022-11-24T23:32:15.168Z,84.90
2022-11-24T23:34:41.721Z,85.70
2022-11-24T23:37:08.264Z,85.70
2022-11-24T23:39:34.828Z,84.50
2022-11-24T23:42:01.517Z,82.90
2022-11-24T23:44:28.113Z,82.40
2022-11-24T23:46:54.747Z,82.30
2022-11-24T23:49:21.300Z,81.60
2022-11-24T23:51:47.817Z,81.60
2022-11-24T23:54:14.440Z,81.50
2022-11-24T23:56:40.997Z,81.10
2022-11-24T23:59:10.259Z,80.10
